Aviation Digital Data Service (ADDS)

Output produced by METARs form (1216 UTC 22 March 2019)
found at http://www.aviationweather.gov/metar/data/
 
METAR text: VECC 221200Z 32016KT 2200 TSRA SCT018 FEW025CB BKN090 25/23 Q1008 TEMPO TL1330 1500 TSRA
Conditions at: VECC (CALCUTTA/DUM DUM, IN) observed 1200 UTC 22 March 2019
Temperature: 25.0°C (77°F)
Dewpoint: 23.0°C (73°F) [RH = 89%]
Pressure (altimeter): 29.76 inches Hg (1008.0 mb)
Winds: from the NW (320 degrees) at 18 MPH (16 knots; 8.2 m/s)
Visibility: 1.37 miles (2.20 km)
Ceiling: 9000 feet AGL
Clouds: scattered clouds at 1800 feet AGL
few clouds at 2500 feet AGL
broken clouds at 9000 feet AGL
Weather: TSRA  (rain associated with thunderstorm(s))

METAR text: VECC 221130Z 16008KT 3200 HZ SCT018 FEW025CB BKN100 32/26 Q1006 TEMPO TL1330 1500 TSRA
Conditions at: VECC (CALCUTTA/DUM DUM, IN) observed 1130 UTC 22 March 2019
Temperature: 32.0°C (90°F)
Dewpoint: 26.0°C (79°F) [RH = 71%]
Pressure (altimeter): 29.70 inches Hg (1006.0 mb)
Winds: from the SSE (160 degrees) at 9 MPH (8 knots; 4.1 m/s)
Visibility: 1.99 miles (3.20 km)
Ceiling: 10000 feet AGL
Clouds: scattered clouds at 1800 feet AGL
few clouds at 2500 feet AGL
broken clouds at 10000 feet AGL
Weather: HZ  (haze)

METAR text: VECC 221100Z 17011KT 3500 HZ FEW020 FEW030CB SCT100 33/25 Q1007 NOSIG
Conditions at: VECC (CALCUTTA/DUM DUM, IN) observed 1100 UTC 22 March 2019
Temperature: 33.0°C (91°F)
Dewpoint: 25.0°C (77°F) [RH = 63%]
Pressure (altimeter): 29.73 inches Hg (1007.0 mb)
Winds: from the S (170 degrees) at 13 MPH (11 knots; 5.7 m/s)
Visibility: 2.17 miles (3.49 km)
Ceiling: at least 12,000 feet AGL
Clouds: few clouds at 2000 feet AGL
few clouds at 3000 feet AGL
scattered clouds at 10000 feet AGL
Weather: HZ  (haze)

METAR text: VECC 221030Z 17011KT 3800 HZ FEW020 FEW030CB SCT100 34/24 Q1007 NOSIG
Conditions at: VECC (CALCUTTA/DUM DUM, IN) observed 1030 UTC 22 March 2019
Temperature: 34.0°C (93°F)
Dewpoint: 24.0°C (75°F) [RH = 56%]
Pressure (altimeter): 29.73 inches Hg (1007.0 mb)
Winds: from the S (170 degrees) at 13 MPH (11 knots; 5.7 m/s)
Visibility: 2.36 miles (3.80 km)
Ceiling: at least 12,000 feet AGL
Clouds: few clouds at 2000 feet AGL
few clouds at 3000 feet AGL
scattered clouds at 10000 feet AGL
Weather: HZ  (haze)

METAR text: VECC 221000Z 22008KT 4000 HZ FEW020 FEW030CB SCT100 35/23 Q1007 NOSIG
Conditions at: VECC (CALCUTTA/DUM DUM, IN) observed 1000 UTC 22 March 2019
Temperature: 35.0°C (95°F)
Dewpoint: 23.0°C (73°F) [RH = 50%]
Pressure (altimeter): 29.73 inches Hg (1007.0 mb)
Winds: from the SW (220 degrees) at 9 MPH (8 knots; 4.1 m/s)
Visibility: 2.49 miles (4.01 km)
Ceiling: at least 12,000 feet AGL
Clouds: few clouds at 2000 feet AGL
few clouds at 3000 feet AGL
scattered clouds at 10000 feet AGL
Weather: HZ  (haze)

METAR text: VECC 220930Z 22006KT 4000 HZ FEW020 SCT100 35/22 Q1007 NOSIG
Conditions at: VECC (CALCUTTA/DUM DUM, IN) observed 0930 UTC 22 March 2019
Temperature: 35.0°C (95°F)
Dewpoint: 22.0°C (72°F) [RH = 47%]
Pressure (altimeter): 29.73 inches Hg (1007.0 mb)
Winds: from the SW (220 degrees) at 7 MPH (6 knots; 3.1 m/s)
Visibility: 2.49 miles (4.01 km)
Ceiling: at least 12,000 feet AGL
Clouds: few clouds at 2000 feet AGL
scattered clouds at 10000 feet AGL
Weather: HZ  (haze)

METAR text: VECC 220900Z 26005KT 4000 HZ FEW020 SCT100 36/22 Q1008 NOSIG
Conditions at: VECC (CALCUTTA/DUM DUM, IN) observed 0900 UTC 22 March 2019
Temperature: 36.0°C (97°F)
Dewpoint: 22.0°C (72°F) [RH = 45%]
Pressure (altimeter): 29.76 inches Hg (1008.0 mb)
Winds: from the W (260 degrees) at 6 MPH (5 knots; 2.6 m/s)
Visibility: 2.49 miles (4.01 km)
Ceiling: at least 12,000 feet AGL
Clouds: few clouds at 2000 feet AGL
scattered clouds at 10000 feet AGL
Weather: HZ  (haze)

METAR text: VECC 220830Z 23006KT 4000 HZ SCT100 35/22 Q1009 NOSIG
Conditions at: VECC (CALCUTTA/DUM DUM, IN) observed 0830 UTC 22 March 2019
Temperature: 35.0°C (95°F)
Dewpoint: 22.0°C (72°F) [RH = 47%]
Pressure (altimeter): 29.79 inches Hg (1009.0 mb)
Winds: from the SW (230 degrees) at 7 MPH (6 knots; 3.1 m/s)
Visibility: 2.49 miles (4.01 km)
Ceiling: at least 12,000 feet AGL
Clouds: scattered clouds at 10000 feet AGL
Weather: HZ  (haze)

METAR text: VECC 220800Z 24008KT 4000 HZ FEW100 35/21 Q1009 NOSIG
Conditions at: VECC (CALCUTTA/DUM DUM, IN) observed 0800 UTC 22 March 2019
Temperature: 35.0°C (95°F)
Dewpoint: 21.0°C (70°F) [RH = 44%]
Pressure (altimeter): 29.79 inches Hg (1009.0 mb)
Winds: from the WSW (240 degrees) at 9 MPH (8 knots; 4.1 m/s)
Visibility: 2.49 miles (4.01 km)
Ceiling: at least 12,000 feet AGL
Clouds: few clouds at 10000 feet AGL
Weather: HZ  (haze)

METAR text: VECC 220730Z 29004KT 4000 HZ NSC 35/21 Q1010 NOSIG
Conditions at: VECC (CALCUTTA/DUM DUM, IN) observed 0730 UTC 22 March 2019
Temperature: 35.0°C (95°F)
Dewpoint: 21.0°C (70°F) [RH = 44%]
Pressure (altimeter): 29.82 inches Hg (1010.0 mb)
Winds: from the WNW (290 degrees) at 5 MPH (4 knots; 2.1 m/s)
Visibility: 2.49 miles (4.01 km)
Ceiling: at least 12,000 feet AGL
Clouds: sky clear below 12,000 feet AGL
Weather: HZ  (haze)

METAR text: VECC 220700Z 30004KT 4000 HZ NSC 35/22 Q1010 NOSIG
Conditions at: VECC (CALCUTTA/DUM DUM, IN) observed 0700 UTC 22 March 2019
Temperature: 35.0°C (95°F)
Dewpoint: 22.0°C (72°F) [RH = 47%]
Pressure (altimeter): 29.82 inches Hg (1010.0 mb)
Winds: from the WNW (300 degrees) at 5 MPH (4 knots; 2.1 m/s)
Visibility: 2.49 miles (4.01 km)
Ceiling: at least 12,000 feet AGL
Clouds: sky clear below 12,000 feet AGL
Weather: HZ  (haze)

METAR text: VECC 220630Z 22005KT 4000 HZ NSC 34/22 Q1011 NOSIG
Conditions at: VECC (CALCUTTA/DUM DUM, IN) observed 0630 UTC 22 March 2019
Temperature: 34.0°C (93°F)
Dewpoint: 22.0°C (72°F) [RH = 50%]
Pressure (altimeter): 29.85 inches Hg (1011.0 mb)
Winds: from the SW (220 degrees) at 6 MPH (5 knots; 2.6 m/s)
Visibility: 2.49 miles (4.01 km)
Ceiling: at least 12,000 feet AGL
Clouds: sky clear below 12,000 feet AGL
Weather: HZ  (haze)

METAR text: VECC 220600Z 24006KT 3800 HZ NSC 33/23 Q1011 NOSIG
Conditions at: VECC (CALCUTTA/DUM DUM, IN) observed 0600 UTC 22 March 2019
Temperature: 33.0°C (91°F)
Dewpoint: 23.0°C (73°F) [RH = 56%]
Pressure (altimeter): 29.85 inches Hg (1011.0 mb)
Winds: from the WSW (240 degrees) at 7 MPH (6 knots; 3.1 m/s)
Visibility: 2.36 miles (3.80 km)
Ceiling: at least 12,000 feet AGL
Clouds: sky clear below 12,000 feet AGL
Weather: HZ  (haze)

METAR text: VECC 220530Z 31004KT 3800 HZ NSC 32/24 Q1012 NOSIG
Conditions at: VECC (CALCUTTA/DUM DUM, IN) observed 0530 UTC 22 March 2019
Temperature: 32.0°C (90°F)
Dewpoint: 24.0°C (75°F) [RH = 63%]
Pressure (altimeter): 29.88 inches Hg (1012.0 mb)
Winds: from the NW (310 degrees) at 5 MPH (4 knots; 2.1 m/s)
Visibility: 2.36 miles (3.80 km)
Ceiling: at least 12,000 feet AGL
Clouds: sky clear below 12,000 feet AGL
Weather: HZ  (haze)

METAR text: VECC 220500Z 24005KT 3500 HZ NSC 31/24 Q1012 NOSIG
Conditions at: VECC (CALCUTTA/DUM DUM, IN) observed 0500 UTC 22 March 2019
Temperature: 31.0°C (88°F)
Dewpoint: 24.0°C (75°F) [RH = 66%]
Pressure (altimeter): 29.88 inches Hg (1012.0 mb)
Winds: from the WSW (240 degrees) at 6 MPH (5 knots; 2.6 m/s)
Visibility: 2.17 miles (3.49 km)
Ceiling: at least 12,000 feet AGL
Clouds: sky clear below 12,000 feet AGL
Weather: HZ  (haze)

METAR text: VECC 220430Z 22006KT 3500 HZ FEW020 31/24 Q1012 NOSIG
Conditions at: VECC (CALCUTTA/DUM DUM, IN) observed 0430 UTC 22 March 2019
Temperature: 31.0°C (88°F)
Dewpoint: 24.0°C (75°F) [RH = 66%]
Pressure (altimeter): 29.88 inches Hg (1012.0 mb)
Winds: from the SW (220 degrees) at 7 MPH (6 knots; 3.1 m/s)
Visibility: 2.17 miles (3.49 km)
Ceiling: at least 12,000 feet AGL
Clouds: few clouds at 2000 feet AGL
Weather: HZ  (haze)

METAR text: VECC 220400Z 25005KT 3500 HZ FEW018 SCT100 30/24 Q1012 NOSIG
Conditions at: VECC (CALCUTTA/DUM DUM, IN) observed 0400 UTC 22 March 2019
Temperature: 30.0°C (86°F)
Dewpoint: 24.0°C (75°F) [RH = 70%]
Pressure (altimeter): 29.88 inches Hg (1012.0 mb)
Winds: from the WSW (250 degrees) at 6 MPH (5 knots; 2.6 m/s)
Visibility: 2.17 miles (3.49 km)
Ceiling: at least 12,000 feet AGL
Clouds: few clouds at 1800 feet AGL
scattered clouds at 10000 feet AGL
Weather: HZ  (haze)

METAR text: VECC 220330Z 24006KT 3200 HZ SCT018 SCT100 29/24 Q1012 NOSIG
Conditions at: VECC (CALCUTTA/DUM DUM, IN) observed 0330 UTC 22 March 2019
Temperature: 29.0°C (84°F)
Dewpoint: 24.0°C (75°F) [RH = 74%]
Pressure (altimeter): 29.88 inches Hg (1012.0 mb)
Winds: from the WSW (240 degrees) at 7 MPH (6 knots; 3.1 m/s)
Visibility: 1.99 miles (3.20 km)
Ceiling: at least 12,000 feet AGL
Clouds: scattered clouds at 1800 feet AGL
scattered clouds at 10000 feet AGL
Weather: HZ  (haze)

METAR text: VECC 220300Z 25007KT 3200 HZ SCT018 SCT100 28/24 Q1012 NOSIG
Conditions at: VECC (CALCUTTA/DUM DUM, IN) observed 0300 UTC 22 March 2019
Temperature: 28.0°C (82°F)
Dewpoint: 24.0°C (75°F) [RH = 79%]
Pressure (altimeter): 29.88 inches Hg (1012.0 mb)
Winds: from the WSW (250 degrees) at 8 MPH (7 knots; 3.6 m/s)
Visibility: 1.99 miles (3.20 km)
Ceiling: at least 12,000 feet AGL
Clouds: scattered clouds at 1800 feet AGL
scattered clouds at 10000 feet AGL
Weather: HZ  (haze)

METAR text: VECC 220230Z 24007KT 3000 BR SCT015 SCT100 27/25 Q1012 NOSIG
Conditions at: VECC (CALCUTTA/DUM DUM, IN) observed 0230 UTC 22 March 2019
Temperature: 27.0°C (81°F)
Dewpoint: 25.0°C (77°F) [RH = 89%]
Pressure (altimeter): 29.88 inches Hg (1012.0 mb)
Winds: from the WSW (240 degrees) at 8 MPH (7 knots; 3.6 m/s)
Visibility: 1.86 miles (2.99 km)
Ceiling: at least 12,000 feet AGL
Clouds: scattered clouds at 1500 feet AGL
scattered clouds at 10000 feet AGL
Weather: BR  (mist)

METAR text: VECC 220200Z 22008KT 2800 BR SCT015 SCT100 27/25 Q1011 BECMG 3000 HZ
Conditions at: VECC (CALCUTTA/DUM DUM, IN) observed 0200 UTC 22 March 2019
Temperature: 27.0°C (81°F)
Dewpoint: 25.0°C (77°F) [RH = 89%]
Pressure (altimeter): 29.85 inches Hg (1011.0 mb)
Winds: from the SW (220 degrees) at 9 MPH (8 knots; 4.1 m/s)
Visibility: 1.74 miles (2.80 km)
Ceiling: at least 12,000 feet AGL
Clouds: scattered clouds at 1500 feet AGL
scattered clouds at 10000 feet AGL
Weather: BR  (mist)

METAR text: VECC 220130Z 23008KT 2500 BR SCT018 SCT100 26/25 Q1010 NOSIG
Conditions at: VECC (CALCUTTA/DUM DUM, IN) observed 0130 UTC 22 March 2019
Temperature: 26.0°C (79°F)
Dewpoint: 25.0°C (77°F) [RH = 94%]
Pressure (altimeter): 29.82 inches Hg (1010.0 mb)
Winds: from the SW (230 degrees) at 9 MPH (8 knots; 4.1 m/s)
Visibility: 1.55 miles (2.49 km)
Ceiling: at least 12,000 feet AGL
Clouds: scattered clouds at 1800 feet AGL
scattered clouds at 10000 feet AGL
Weather: BR  (mist)

METAR text: VECC 220100Z 22008KT 2400 BR SCT018 SCT100 26/25 Q1010 NOSIG
Conditions at: VECC (CALCUTTA/DUM DUM, IN) observed 0100 UTC 22 March 2019
Temperature: 26.0°C (79°F)
Dewpoint: 25.0°C (77°F) [RH = 94%]
Pressure (altimeter): 29.82 inches Hg (1010.0 mb)
Winds: from the SW (220 degrees) at 9 MPH (8 knots; 4.1 m/s)
Visibility: 1.49 miles (2.40 km)
Ceiling: at least 12,000 feet AGL
Clouds: scattered clouds at 1800 feet AGL
scattered clouds at 10000 feet AGL
Weather: BR  (mist)

METAR text: VECC 220000Z 21009KT 2200 BR NSC 26/25 Q1009 NOSIG
Conditions at: VECC (CALCUTTA/DUM DUM, IN) observed 0000 UTC 22 March 2019
Temperature: 26.0°C (79°F)
Dewpoint: 25.0°C (77°F) [RH = 94%]
Pressure (altimeter): 29.79 inches Hg (1009.0 mb)
Winds: from the SSW (210 degrees) at 10 MPH (9 knots; 4.6 m/s)
Visibility: 1.37 miles (2.20 km)
Ceiling: at least 12,000 feet AGL
Clouds: sky clear below 12,000 feet AGL
Weather: BR  (mist)

METAR text: VECC 212330Z 21009KT 2200 BR NSC 26/25 Q1009 NOSIG
Conditions at: VECC (CALCUTTA/DUM DUM, IN) observed 2330 UTC 21 March 2019
Temperature: 26.0°C (79°F)
Dewpoint: 25.0°C (77°F) [RH = 94%]
Pressure (altimeter): 29.79 inches Hg (1009.0 mb)
Winds: from the SSW (210 degrees) at 10 MPH (9 knots; 4.6 m/s)
Visibility: 1.37 miles (2.20 km)
Ceiling: at least 12,000 feet AGL
Clouds: sky clear below 12,000 feet AGL
Weather: BR  (mist)

METAR text: VECC 212300Z 22008KT 2400 BR NSC 26/25 Q1009 NOSIG
Conditions at: VECC (CALCUTTA/DUM DUM, IN) observed 2300 UTC 21 March 2019
Temperature: 26.0°C (79°F)
Dewpoint: 25.0°C (77°F) [RH = 94%]
Pressure (altimeter): 29.79 inches Hg (1009.0 mb)
Winds: from the SW (220 degrees) at 9 MPH (8 knots; 4.1 m/s)
Visibility: 1.49 miles (2.40 km)
Ceiling: at least 12,000 feet AGL
Clouds: sky clear below 12,000 feet AGL
Weather: BR  (mist)

METAR text: VECC 212230Z 23008KT 2500 BR NSC 26/25 Q1009 NOSIG
Conditions at: VECC (CALCUTTA/DUM DUM, IN) observed 2230 UTC 21 March 2019
Temperature: 26.0°C (79°F)
Dewpoint: 25.0°C (77°F) [RH = 94%]
Pressure (altimeter): 29.79 inches Hg (1009.0 mb)
Winds: from the SW (230 degrees) at 9 MPH (8 knots; 4.1 m/s)
Visibility: 1.55 miles (2.49 km)
Ceiling: at least 12,000 feet AGL
Clouds: sky clear below 12,000 feet AGL
Weather: BR  (mist)

METAR text: VECC 212200Z 20008KT 2500 BR NSC 26/24 Q1009 NOSIG
Conditions at: VECC (CALCUTTA/DUM DUM, IN) observed 2200 UTC 21 March 2019
Temperature: 26.0°C (79°F)
Dewpoint: 24.0°C (75°F) [RH = 89%]
Pressure (altimeter): 29.79 inches Hg (1009.0 mb)
Winds: from the SSW (200 degrees) at 9 MPH (8 knots; 4.1 m/s)
Visibility: 1.55 miles (2.49 km)
Ceiling: at least 12,000 feet AGL
Clouds: sky clear below 12,000 feet AGL
Weather: BR  (mist)

METAR text: VECC 212130Z 21007KT 2500 BR NSC 26/24 Q1009 NOSIG
Conditions at: VECC (CALCUTTA/DUM DUM, IN) observed 2130 UTC 21 March 2019
Temperature: 26.0°C (79°F)
Dewpoint: 24.0°C (75°F) [RH = 89%]
Pressure (altimeter): 29.79 inches Hg (1009.0 mb)
Winds: from the SSW (210 degrees) at 8 MPH (7 knots; 3.6 m/s)
Visibility: 1.55 miles (2.49 km)
Ceiling: at least 12,000 feet AGL
Clouds: sky clear below 12,000 feet AGL
Weather: BR  (mist)

METAR text: VECC 212100Z 22004KT 2600 BR NSC 26/25 Q1009 NOSIG
Conditions at: VECC (CALCUTTA/DUM DUM, IN) observed 2100 UTC 21 March 2019
Temperature: 26.0°C (79°F)
Dewpoint: 25.0°C (77°F) [RH = 94%]
Pressure (altimeter): 29.79 inches Hg (1009.0 mb)
Winds: from the SW (220 degrees) at 5 MPH (4 knots; 2.1 m/s)
Visibility: 1.62 miles (2.61 km)
Ceiling: at least 12,000 feet AGL
Clouds: sky clear below 12,000 feet AGL
Weather: BR  (mist)

METAR text: VECC 212030Z 22004KT 2600 BR NSC 26/25 Q1009 NOSIG
Conditions at: VECC (CALCUTTA/DUM DUM, IN) observed 2030 UTC 21 March 2019
Temperature: 26.0°C (79°F)
Dewpoint: 25.0°C (77°F) [RH = 94%]
Pressure (altimeter): 29.79 inches Hg (1009.0 mb)
Winds: from the SW (220 degrees) at 5 MPH (4 knots; 2.1 m/s)
Visibility: 1.62 miles (2.61 km)
Ceiling: at least 12,000 feet AGL
Clouds: sky clear below 12,000 feet AGL
Weather: BR  (mist)

METAR text: VECC 212000Z 28006KT 2600 BR NSC 26/25 Q1010 NOSIG
Conditions at: VECC (CALCUTTA/DUM DUM, IN) observed 2000 UTC 21 March 2019
Temperature: 26.0°C (79°F)
Dewpoint: 25.0°C (77°F) [RH = 94%]
Pressure (altimeter): 29.82 inches Hg (1010.0 mb)
Winds: from the W (280 degrees) at 7 MPH (6 knots; 3.1 m/s)
Visibility: 1.62 miles (2.61 km)
Ceiling: at least 12,000 feet AGL
Clouds: sky clear below 12,000 feet AGL
Weather: BR  (mist)

METAR text: VECC 211930Z 26005KT 2600 BR NSC 27/26 Q1011 NOSIG
Conditions at: VECC (CALCUTTA/DUM DUM, IN) observed 1930 UTC 21 March 2019
Temperature: 27.0°C (81°F)
Dewpoint: 26.0°C (79°F) [RH = 94%]
Pressure (altimeter): 29.85 inches Hg (1011.0 mb)
Winds: from the W (260 degrees) at 6 MPH (5 knots; 2.6 m/s)
Visibility: 1.62 miles (2.61 km)
Ceiling: at least 12,000 feet AGL
Clouds: sky clear below 12,000 feet AGL
Weather: BR  (mist)

METAR text: VECC 211900Z 18008KT 2800 HZ NSC 26/25 Q1010 NOSIG
Conditions at: VECC (CALCUTTA/DUM DUM, IN) observed 1900 UTC 21 March 2019
Temperature: 26.0°C (79°F)
Dewpoint: 25.0°C (77°F) [RH = 94%]
Pressure (altimeter): 29.82 inches Hg (1010.0 mb)
Winds: from the S (180 degrees) at 9 MPH (8 knots; 4.1 m/s)
Visibility: 1.74 miles (2.80 km)
Ceiling: at least 12,000 feet AGL
Clouds: sky clear below 12,000 feet AGL
Weather: HZ  (haze)

METAR text: VECC 211830Z 20009KT 2800 HZ NSC 27/24 Q1011 NOSIG
Conditions at: VECC (CALCUTTA/DUM DUM, IN) observed 1830 UTC 21 March 2019
Temperature: 27.0°C (81°F)
Dewpoint: 24.0°C (75°F) [RH = 84%]
Pressure (altimeter): 29.85 inches Hg (1011.0 mb)
Winds: from the SSW (200 degrees) at 10 MPH (9 knots; 4.6 m/s)
Visibility: 1.74 miles (2.80 km)
Ceiling: at least 12,000 feet AGL
Clouds: sky clear below 12,000 feet AGL
Weather: HZ  (haze)

METAR text: VECC 211800Z 18007KT 2800 HZ NSC 26/23 Q1011 NOSIG
Conditions at: VECC (CALCUTTA/DUM DUM, IN) observed 1800 UTC 21 March 2019
Temperature: 26.0°C (79°F)
Dewpoint: 23.0°C (73°F) [RH = 84%]
Pressure (altimeter): 29.85 inches Hg (1011.0 mb)
Winds: from the S (180 degrees) at 8 MPH (7 knots; 3.6 m/s)
Visibility: 1.74 miles (2.80 km)
Ceiling: at least 12,000 feet AGL
Clouds: sky clear below 12,000 feet AGL
Weather: HZ  (haze)

METAR text: VECC 211730Z 18006KT 3000 HZ NSC 26/23 Q1011 NOSIG
Conditions at: VECC (CALCUTTA/DUM DUM, IN) observed 1730 UTC 21 March 2019
Temperature: 26.0°C (79°F)
Dewpoint: 23.0°C (73°F) [RH = 84%]
Pressure (altimeter): 29.85 inches Hg (1011.0 mb)
Winds: from the S (180 degrees) at 7 MPH (6 knots; 3.1 m/s)
Visibility: 1.86 miles (2.99 km)
Ceiling: at least 12,000 feet AGL
Clouds: sky clear below 12,000 feet AGL
Weather: HZ  (haze)

METAR text: VECC 211700Z 17006KT 3000 HZ NSC 27/22 Q1011 NOSIG
Conditions at: VECC (CALCUTTA/DUM DUM, IN) observed 1700 UTC 21 March 2019
Temperature: 27.0°C (81°F)
Dewpoint: 22.0°C (72°F) [RH = 74%]
Pressure (altimeter): 29.85 inches Hg (1011.0 mb)
Winds: from the S (170 degrees) at 7 MPH (6 knots; 3.1 m/s)
Visibility: 1.86 miles (2.99 km)
Ceiling: at least 12,000 feet AGL
Clouds: sky clear below 12,000 feet AGL
Weather: HZ  (haze)

METAR text: VECC 211630Z 17006KT 3000 HZ NSC 27/22 Q1011 NOSIG
Conditions at: VECC (CALCUTTA/DUM DUM, IN) observed 1630 UTC 21 March 2019
Temperature: 27.0°C (81°F)
Dewpoint: 22.0°C (72°F) [RH = 74%]
Pressure (altimeter): 29.85 inches Hg (1011.0 mb)
Winds: from the S (170 degrees) at 7 MPH (6 knots; 3.1 m/s)
Visibility: 1.86 miles (2.99 km)
Ceiling: at least 12,000 feet AGL
Clouds: sky clear below 12,000 feet AGL
Weather: HZ  (haze)

METAR text: VECC 211600Z 19010KT 3000 HZ NSC 28/22 Q1011 NOSIG
Conditions at: VECC (CALCUTTA/DUM DUM, IN) observed 1600 UTC 21 March 2019
Temperature: 28.0°C (82°F)
Dewpoint: 22.0°C (72°F) [RH = 70%]
Pressure (altimeter): 29.85 inches Hg (1011.0 mb)
Winds: from the S (190 degrees) at 12 MPH (10 knots; 5.1 m/s)
Visibility: 1.86 miles (2.99 km)
Ceiling: at least 12,000 feet AGL
Clouds: sky clear below 12,000 feet AGL
Weather: HZ  (haze)

METAR text: VECC 211530Z 20012KT 3200 HZ NSC 28/22 Q1011 BECMG 3000 HZ
Conditions at: VECC (CALCUTTA/DUM DUM, IN) observed 1530 UTC 21 March 2019
Temperature: 28.0°C (82°F)
Dewpoint: 22.0°C (72°F) [RH = 70%]
Pressure (altimeter): 29.85 inches Hg (1011.0 mb)
Winds: from the SSW (200 degrees) at 14 MPH (12 knots; 6.2 m/s)
Visibility: 1.99 miles (3.20 km)
Ceiling: at least 12,000 feet AGL
Clouds: sky clear below 12,000 feet AGL
Weather: HZ  (haze)

METAR text: VECC 211500Z 18011KT 3200 HZ NSC 29/23 Q1011 NOSIG
Conditions at: VECC (CALCUTTA/DUM DUM, IN) observed 1500 UTC 21 March 2019
Temperature: 29.0°C (84°F)
Dewpoint: 23.0°C (73°F) [RH = 70%]
Pressure (altimeter): 29.85 inches Hg (1011.0 mb)
Winds: from the S (180 degrees) at 13 MPH (11 knots; 5.7 m/s)
Visibility: 1.99 miles (3.20 km)
Ceiling: at least 12,000 feet AGL
Clouds: sky clear below 12,000 feet AGL
Weather: HZ  (haze)

METAR text: VECC 211430Z 18009KT 3200 HZ NSC 30/21 Q1011 NOSIG
Conditions at: VECC (CALCUTTA/DUM DUM, IN) observed 1430 UTC 21 March 2019
Temperature: 30.0°C (86°F)
Dewpoint: 21.0°C (70°F) [RH = 59%]
Pressure (altimeter): 29.85 inches Hg (1011.0 mb)
Winds: from the S (180 degrees) at 10 MPH (9 knots; 4.6 m/s)
Visibility: 1.99 miles (3.20 km)
Ceiling: at least 12,000 feet AGL
Clouds: sky clear below 12,000 feet AGL
Weather: HZ  (haze)

METAR text: VECC 211400Z 17007KT 3200 HZ NSC 30/21 Q1010 NOSIG
Conditions at: VECC (CALCUTTA/DUM DUM, IN) observed 1400 UTC 21 March 2019
Temperature: 30.0°C (86°F)
Dewpoint: 21.0°C (70°F) [RH = 59%]
Pressure (altimeter): 29.82 inches Hg (1010.0 mb)
Winds: from the S (170 degrees) at 8 MPH (7 knots; 3.6 m/s)
Visibility: 1.99 miles (3.20 km)
Ceiling: at least 12,000 feet AGL
Clouds: sky clear below 12,000 feet AGL
Weather: HZ  (haze)

METAR text: VECC 211330Z 18006KT 3200 HZ NSC 30/21 Q1010 NOSIG
Conditions at: VECC (CALCUTTA/DUM DUM, IN) observed 1330 UTC 21 March 2019
Temperature: 30.0°C (86°F)
Dewpoint: 21.0°C (70°F) [RH = 59%]
Pressure (altimeter): 29.82 inches Hg (1010.0 mb)
Winds: from the S (180 degrees) at 7 MPH (6 knots; 3.1 m/s)
Visibility: 1.99 miles (3.20 km)
Ceiling: at least 12,000 feet AGL
Clouds: sky clear below 12,000 feet AGL
Weather: HZ  (haze)

METAR text: VECC 211300Z 18008KT 3200 HZ NSC 31/22 Q1010 NOSIG
Conditions at: VECC (CALCUTTA/DUM DUM, IN) observed 1300 UTC 21 March 2019
Temperature: 31.0°C (88°F)
Dewpoint: 22.0°C (72°F) [RH = 59%]
Pressure (altimeter): 29.82 inches Hg (1010.0 mb)
Winds: from the S (180 degrees) at 9 MPH (8 knots; 4.1 m/s)
Visibility: 1.99 miles (3.20 km)
Ceiling: at least 12,000 feet AGL
Clouds: sky clear below 12,000 feet AGL
Weather: HZ  (haze)

METAR text: VECC 211230Z 18007KT 3500 HZ NSC 32/22 Q1009 NOSIG
Conditions at: VECC (CALCUTTA/DUM DUM, IN) observed 1230 UTC 21 March 2019
Temperature: 32.0°C (90°F)
Dewpoint: 22.0°C (72°F) [RH = 56%]
Pressure (altimeter): 29.79 inches Hg (1009.0 mb)
Winds: from the S (180 degrees) at 8 MPH (7 knots; 3.6 m/s)
Visibility: 2.17 miles (3.49 km)
Ceiling: at least 12,000 feet AGL
Clouds: sky clear below 12,000 feet AGL
Weather: HZ  (haze)

METAR text: VECC 211200Z 17009KT 3500 HZ NSC 32/22 Q1008 NOSIG
Conditions at: VECC (CALCUTTA/DUM DUM, IN) observed 1200 UTC 21 March 2019
Temperature: 32.0°C (90°F)
Dewpoint: 22.0°C (72°F) [RH = 56%]
Pressure (altimeter): 29.76 inches Hg (1008.0 mb)
Winds: from the S (170 degrees) at 10 MPH (9 knots; 4.6 m/s)
Visibility: 2.17 miles (3.49 km)
Ceiling: at least 12,000 feet AGL
Clouds: sky clear below 12,000 feet AGL
Weather: HZ  (haze)

METAR text: VECC 211130Z 17008KT 4000 HZ NSC 33/21 Q1008 NOSIG
Conditions at: VECC (CALCUTTA/DUM DUM, IN) observed 1130 UTC 21 March 2019
Temperature: 33.0°C (91°F)
Dewpoint: 21.0°C (70°F) [RH = 49%]
Pressure (altimeter): 29.76 inches Hg (1008.0 mb)
Winds: from the S (170 degrees) at 9 MPH (8 knots; 4.1 m/s)
Visibility: 2.49 miles (4.01 km)
Ceiling: at least 12,000 feet AGL
Clouds: sky clear below 12,000 feet AGL
Weather: HZ  (haze)

METAR text: VECC 211100Z 16008KT 4000 HZ NSC 33/21 Q1009 NOSIG
Conditions at: VECC (CALCUTTA/DUM DUM, IN) observed 1100 UTC 21 March 2019
Temperature: 33.0°C (91°F)
Dewpoint: 21.0°C (70°F) [RH = 49%]
Pressure (altimeter): 29.79 inches Hg (1009.0 mb)
Winds: from the SSE (160 degrees) at 9 MPH (8 knots; 4.1 m/s)
Visibility: 2.49 miles (4.01 km)
Ceiling: at least 12,000 feet AGL
Clouds: sky clear below 12,000 feet AGL
Weather: HZ  (haze)

METAR text: VECC 211030Z 16009KT 4000 HZ FEW020 34/21 Q1009 NOSIG
Conditions at: VECC (CALCUTTA/DUM DUM, IN) observed 1030 UTC 21 March 2019
Temperature: 34.0°C (93°F)
Dewpoint: 21.0°C (70°F) [RH = 47%]
Pressure (altimeter): 29.79 inches Hg (1009.0 mb)
Winds: from the SSE (160 degrees) at 10 MPH (9 knots; 4.6 m/s)
Visibility: 2.49 miles (4.01 km)
Ceiling: at least 12,000 feet AGL
Clouds: few clouds at 2000 feet AGL
Weather: HZ  (haze)

METAR text: VECC 211000Z 16005KT 4000 HZ FEW020 35/21 Q1008 NOSIG
Conditions at: VECC (CALCUTTA/DUM DUM, IN) observed 1000 UTC 21 March 2019
Temperature: 35.0°C (95°F)
Dewpoint: 21.0°C (70°F) [RH = 44%]
Pressure (altimeter): 29.76 inches Hg (1008.0 mb)
Winds: from the SSE (160 degrees) at 6 MPH (5 knots; 2.6 m/s)
Visibility: 2.49 miles (4.01 km)
Ceiling: at least 12,000 feet AGL
Clouds: few clouds at 2000 feet AGL
Weather: HZ  (haze)

METAR text: VECC 210930Z 16007KT 4000 HZ FEW020 35/21 Q1008 NOSIG
Conditions at: VECC (CALCUTTA/DUM DUM, IN) observed 0930 UTC 21 March 2019
Temperature: 35.0°C (95°F)
Dewpoint: 21.0°C (70°F) [RH = 44%]
Pressure (altimeter): 29.76 inches Hg (1008.0 mb)
Winds: from the SSE (160 degrees) at 8 MPH (7 knots; 3.6 m/s)
Visibility: 2.49 miles (4.01 km)
Ceiling: at least 12,000 feet AGL
Clouds: few clouds at 2000 feet AGL
Weather: HZ  (haze)

METAR text: VECC 210900Z 12006KT 4000 HZ NSC 35/21 Q1009 NOSIG
Conditions at: VECC (CALCUTTA/DUM DUM, IN) observed 0900 UTC 21 March 2019
Temperature: 35.0°C (95°F)
Dewpoint: 21.0°C (70°F) [RH = 44%]
Pressure (altimeter): 29.79 inches Hg (1009.0 mb)
Winds: from the ESE (120 degrees) at 7 MPH (6 knots; 3.1 m/s)
Visibility: 2.49 miles (4.01 km)
Ceiling: at least 12,000 feet AGL
Clouds: sky clear below 12,000 feet AGL
Weather: HZ  (haze)

METAR text: VECC 210830Z 12005KT 4000 HZ NSC 35/21 Q1009 NOSIG
Conditions at: VECC (CALCUTTA/DUM DUM, IN) observed 0830 UTC 21 March 2019
Temperature: 35.0°C (95°F)
Dewpoint: 21.0°C (70°F) [RH = 44%]
Pressure (altimeter): 29.79 inches Hg (1009.0 mb)
Winds: from the ESE (120 degrees) at 6 MPH (5 knots; 2.6 m/s)
Visibility: 2.49 miles (4.01 km)
Ceiling: at least 12,000 feet AGL
Clouds: sky clear below 12,000 feet AGL
Weather: HZ  (haze)

METAR text: VECC 210800Z 10005KT 4000 HZ NSC 35/21 Q1009 NOSIG
Conditions at: VECC (CALCUTTA/DUM DUM, IN) observed 0800 UTC 21 March 2019
Temperature: 35.0°C (95°F)
Dewpoint: 21.0°C (70°F) [RH = 44%]
Pressure (altimeter): 29.79 inches Hg (1009.0 mb)
Winds: from the E (100 degrees) at 6 MPH (5 knots; 2.6 m/s)
Visibility: 2.49 miles (4.01 km)
Ceiling: at least 12,000 feet AGL
Clouds: sky clear below 12,000 feet AGL
Weather: HZ  (haze)

METAR text: VECC 210730Z 13003KT 4000 HZ FEW100 35/21 Q1010 NOSIG
Conditions at: VECC (CALCUTTA/DUM DUM, IN) observed 0730 UTC 21 March 2019
Temperature: 35.0°C (95°F)
Dewpoint: 21.0°C (70°F) [RH = 44%]
Pressure (altimeter): 29.82 inches Hg (1010.0 mb)
Winds: from the SE (130 degrees) at 3 MPH (3 knots; 1.5 m/s)
Visibility: 2.49 miles (4.01 km)
Ceiling: at least 12,000 feet AGL
Clouds: few clouds at 10000 feet AGL
Weather: HZ  (haze)

METAR text: VECC 210700Z 21003KT 4000 HZ FEW100 34/21 Q1011 NOSIG
Conditions at: VECC (CALCUTTA/DUM DUM, IN) observed 0700 UTC 21 March 2019
Temperature: 34.0°C (93°F)
Dewpoint: 21.0°C (70°F) [RH = 47%]
Pressure (altimeter): 29.85 inches Hg (1011.0 mb)
Winds: from the SSW (210 degrees) at 3 MPH (3 knots; 1.5 m/s)
Visibility: 2.49 miles (4.01 km)
Ceiling: at least 12,000 feet AGL
Clouds: few clouds at 10000 feet AGL
Weather: HZ  (haze)

METAR text: VECC 210630Z 30003KT 4000 HZ FEW100 34/21 Q1011 NOSIG
Conditions at: VECC (CALCUTTA/DUM DUM, IN) observed 0630 UTC 21 March 2019
Temperature: 34.0°C (93°F)
Dewpoint: 21.0°C (70°F) [RH = 47%]
Pressure (altimeter): 29.85 inches Hg (1011.0 mb)
Winds: from the WNW (300 degrees) at 3 MPH (3 knots; 1.5 m/s)
Visibility: 2.49 miles (4.01 km)
Ceiling: at least 12,000 feet AGL
Clouds: few clouds at 10000 feet AGL
Weather: HZ  (haze)

METAR text: VECC 210600Z 30003KT 3500 HZ NSC 33/22 Q1012 NOSIG
Conditions at: VECC (CALCUTTA/DUM DUM, IN) observed 0600 UTC 21 March 2019
Temperature: 33.0°C (91°F)
Dewpoint: 22.0°C (72°F) [RH = 53%]
Pressure (altimeter): 29.88 inches Hg (1012.0 mb)
Winds: from the WNW (300 degrees) at 3 MPH (3 knots; 1.5 m/s)
Visibility: 2.17 miles (3.49 km)
Ceiling: at least 12,000 feet AGL
Clouds: sky clear below 12,000 feet AGL
Weather: HZ  (haze)

METAR text: VECC 210530Z 30003KT 3500 HZ NSC 32/22 Q1013 NOSIG
Conditions at: VECC (CALCUTTA/DUM DUM, IN) observed 0530 UTC 21 March 2019
Temperature: 32.0°C (90°F)
Dewpoint: 22.0°C (72°F) [RH = 56%]
Pressure (altimeter): 29.91 inches Hg (1013.0 mb)
Winds: from the WNW (300 degrees) at 3 MPH (3 knots; 1.5 m/s)
Visibility: 2.17 miles (3.49 km)
Ceiling: at least 12,000 feet AGL
Clouds: sky clear below 12,000 feet AGL
Weather: HZ  (haze)

METAR text: VECC 210500Z 30006KT 3500 HZ NSC 31/22 Q1013 NOSIG
Conditions at: VECC (CALCUTTA/DUM DUM, IN) observed 0500 UTC 21 March 2019
Temperature: 31.0°C (88°F)
Dewpoint: 22.0°C (72°F) [RH = 59%]
Pressure (altimeter): 29.91 inches Hg (1013.0 mb)
Winds: from the WNW (300 degrees) at 7 MPH (6 knots; 3.1 m/s)
Visibility: 2.17 miles (3.49 km)
Ceiling: at least 12,000 feet AGL
Clouds: sky clear below 12,000 feet AGL
Weather: HZ  (haze)

METAR text: VECC 210430Z 30006KT 3500 HZ NSC 31/22 Q1013 NOSIG
Conditions at: VECC (CALCUTTA/DUM DUM, IN) observed 0430 UTC 21 March 2019
Temperature: 31.0°C (88°F)
Dewpoint: 22.0°C (72°F) [RH = 59%]
Pressure (altimeter): 29.91 inches Hg (1013.0 mb)
Winds: from the WNW (300 degrees) at 7 MPH (6 knots; 3.1 m/s)
Visibility: 2.17 miles (3.49 km)
Ceiling: at least 12,000 feet AGL
Clouds: sky clear below 12,000 feet AGL
Weather: HZ  (haze)

METAR text: VECC 210400Z 30003KT 3200 HZ FEW100 30/23 Q1013 NOSIG
Conditions at: VECC (CALCUTTA/DUM DUM, IN) observed 0400 UTC 21 March 2019
Temperature: 30.0°C (86°F)
Dewpoint: 23.0°C (73°F) [RH = 66%]
Pressure (altimeter): 29.91 inches Hg (1013.0 mb)
Winds: from the WNW (300 degrees) at 3 MPH (3 knots; 1.5 m/s)
Visibility: 1.99 miles (3.20 km)
Ceiling: at least 12,000 feet AGL
Clouds: few clouds at 10000 feet AGL
Weather: HZ  (haze)

METAR text: VECC 210330Z 26005KT 3200 HZ FEW100 29/23 Q1013 NOSIG
Conditions at: VECC (CALCUTTA/DUM DUM, IN) observed 0330 UTC 21 March 2019
Temperature: 29.0°C (84°F)
Dewpoint: 23.0°C (73°F) [RH = 70%]
Pressure (altimeter): 29.91 inches Hg (1013.0 mb)
Winds: from the W (260 degrees) at 6 MPH (5 knots; 2.6 m/s)
Visibility: 1.99 miles (3.20 km)
Ceiling: at least 12,000 feet AGL
Clouds: few clouds at 10000 feet AGL
Weather: HZ  (haze)

METAR text: VECC 210300Z 22005KT 3200 HZ FEW100 28/23 Q1013 NOSIG
Conditions at: VECC (CALCUTTA/DUM DUM, IN) observed 0300 UTC 21 March 2019
Temperature: 28.0°C (82°F)
Dewpoint: 23.0°C (73°F) [RH = 74%]
Pressure (altimeter): 29.91 inches Hg (1013.0 mb)
Winds: from the SW (220 degrees) at 6 MPH (5 knots; 2.6 m/s)
Visibility: 1.99 miles (3.20 km)
Ceiling: at least 12,000 feet AGL
Clouds: few clouds at 10000 feet AGL
Weather: HZ  (haze)

METAR text: VECC 210230Z 24005KT 3200 HZ FEW100 27/23 Q1012 NOSIG
Conditions at: VECC (CALCUTTA/DUM DUM, IN) observed 0230 UTC 21 March 2019
Temperature: 27.0°C (81°F)
Dewpoint: 23.0°C (73°F) [RH = 79%]
Pressure (altimeter): 29.88 inches Hg (1012.0 mb)
Winds: from the WSW (240 degrees) at 6 MPH (5 knots; 2.6 m/s)
Visibility: 1.99 miles (3.20 km)
Ceiling: at least 12,000 feet AGL
Clouds: few clouds at 10000 feet AGL
Weather: HZ  (haze)

METAR text: VECC 210200Z 22005KT 3200 HZ SCT100 26/23 Q1012 NOSIG
Conditions at: VECC (CALCUTTA/DUM DUM, IN) observed 0200 UTC 21 March 2019
Temperature: 26.0°C (79°F)
Dewpoint: 23.0°C (73°F) [RH = 84%]
Pressure (altimeter): 29.88 inches Hg (1012.0 mb)
Winds: from the SW (220 degrees) at 6 MPH (5 knots; 2.6 m/s)
Visibility: 1.99 miles (3.20 km)
Ceiling: at least 12,000 feet AGL
Clouds: scattered clouds at 10000 feet AGL
Weather: HZ  (haze)

METAR text: VECC 210130Z 22005KT 3000 HZ SCT100 25/23 Q1012 NOSIG
Conditions at: VECC (CALCUTTA/DUM DUM, IN) observed 0130 UTC 21 March 2019
Temperature: 25.0°C (77°F)
Dewpoint: 23.0°C (73°F) [RH = 89%]
Pressure (altimeter): 29.88 inches Hg (1012.0 mb)
Winds: from the SW (220 degrees) at 6 MPH (5 knots; 2.6 m/s)
Visibility: 1.86 miles (2.99 km)
Ceiling: at least 12,000 feet AGL
Clouds: scattered clouds at 10000 feet AGL
Weather: HZ  (haze)

METAR text: VECC 210100Z 22005KT 3000 HZ FEW020 SCT100 25/23 Q1011 NOSIG
Conditions at: VECC (CALCUTTA/DUM DUM, IN) observed 0100 UTC 21 March 2019
Temperature: 25.0°C (77°F)
Dewpoint: 23.0°C (73°F) [RH = 89%]
Pressure (altimeter): 29.85 inches Hg (1011.0 mb)
Winds: from the SW (220 degrees) at 6 MPH (5 knots; 2.6 m/s)
Visibility: 1.86 miles (2.99 km)
Ceiling: at least 12,000 feet AGL
Clouds: few clouds at 2000 feet AGL
scattered clouds at 10000 feet AGL
Weather: HZ  (haze)

METAR text: VECC 210030Z 20006KT 3000 HZ FEW020 SCT100 24/23 Q1010 NOSIG
Conditions at: VECC (CALCUTTA/DUM DUM, IN) observed 0030 UTC 21 March 2019
Temperature: 24.0°C (75°F)
Dewpoint: 23.0°C (73°F) [RH = 94%]
Pressure (altimeter): 29.82 inches Hg (1010.0 mb)
Winds: from the SSW (200 degrees) at 7 MPH (6 knots; 3.1 m/s)
Visibility: 1.86 miles (2.99 km)
Ceiling: at least 12,000 feet AGL
Clouds: few clouds at 2000 feet AGL
scattered clouds at 10000 feet AGL
Weather: HZ  (haze)

Forecast for: COR
Text: TAF COR VECC 221100Z 2212/2318 23005KT 3100 HZ FEW020 SCT100
Forecast period: 1200 to 1600 UTC 22 March 2019
Forecast type: FROM: standard forecast or significant change
Winds: from the SW (230 degrees) at 6 MPH (5 knots; 2.6 m/s)
Visibility: 1.93 miles (3.11 km)
Ceiling: at least 12,000 feet AGL
Clouds: few clouds at 2000 feet AGL
scattered clouds at 10000 feet AGL
Weather: HZ  (haze)
Text: PROB40
Forecast period: 1200 to 1600 UTC 22 March 2019
Forecast type: TEMPORARY: The following changes expected for less than half the time period
Visibility: 0.93 miles (1.50 km)
Ceiling: 8000 feet AGL
Clouds: scattered clouds at 1500 feet AGL
few clouds at 2500 feet AGL
overcast cloud deck at 8000 feet AGL
Weather: TSRA  (rain associated with thunderstorm(s))
Text: TEMPO 2212/2216 1500 TSRA SCT015 FEW025CB OVC080
Forecast period: 1600 UTC 22 March 2019 to 0000 UTC 23 March 2019
Forecast type: BECOMING: Conditions expected to become as follows by 1800 UTC 22 March 2019
Winds: calm
Visibility: 1.49 miles (2.40 km)
Ceiling: at least 12,000 feet AGL
Clouds: few clouds at 2000 feet AGL
scattered clouds at 10000 feet AGL
Weather: BR  (mist)
Text: BECMG 2216/2218 00000KT 2400 BR
Forecast period: 0000 to 0300 UTC 23 March 2019
Forecast type: BECOMING: Conditions expected to become as follows by 0200 UTC 23 March 2019
Winds: from the NW (310 degrees) at 6 MPH (5 knots; 2.6 m/s)
Visibility: 0.87 miles (1.40 km)
Ceiling: at least 12,000 feet AGL
Clouds: scattered clouds at 2000 feet AGL
Weather: BR  (mist)
Text: BECMG 2300/2302 31005KT 1400 BR SCT020
Forecast period: 0300 to 0600 UTC 23 March 2019
Forecast type: BECOMING: Conditions expected to become as follows by 0500 UTC 23 March 2019
Winds: from the WSW (240 degrees) at 7 MPH (6 knots; 3.1 m/s)
Visibility: 1.55 miles (2.49 km)
Ceiling: at least 12,000 feet AGL
Clouds: scattered clouds at 2000 feet AGL
Weather: HZ  (haze)
Text: BECMG 2303/2305 24006KT 2500 HZ
Forecast period: 0600 to 1300 UTC 23 March 2019
Forecast type: BECOMING: Conditions expected to become as follows by 0800 UTC 23 March 2019
Winds: from the WSW (240 degrees) at 7 MPH (6 knots; 3.1 m/s)
Visibility: 2.42 miles (3.89 km)
Ceiling: at least 12,000 feet AGL
Clouds: few clouds at 2000 feet AGL
Weather: HZ  (haze)
Text: BECMG 2306/2308 3900 HZ FEW020
Forecast period: 1300 to 1800 UTC 23 March 2019
Forecast type: BECOMING: Conditions expected to become as follows by 1500 UTC 23 March 2019
Winds: calm
Visibility: 1.74 miles (2.80 km)
Ceiling: at least 12,000 feet AGL
Clouds: few clouds at 2000 feet AGL
Weather: HZ  (haze)